sensor_id;sensor_type;location;lat;lon;timestamp;P1;P2;P0
71794;PMS7003;59641;45.188;5.712;2023-05-07T00:01:02;0.00;0.00;0.00
71794;PMS7003;59641;45.188;5.712;2023-05-07T00:03:27;0.00;0.00;0.00
71794;PMS7003;59641;45.188;5.712;2023-05-07T00:05:53;1.00;1.00;1.00
71794;PMS7003;59641;45.188;5.712;2023-05-07T00:08:19;0.75;0.75;0.00
71794;PMS7003;59641;45.188;5.712;2023-05-07T00:10:45;0.80;0.60;0.00
71794;PMS7003;59641;45.188;5.712;2023-05-07T00:13:11;0.25;0.25;0.00
71794;PMS7003;59641;45.188;5.712;2023-05-07T00:15:36;0.25;0.25;0.00
71794;PMS7003;59641;45.188;5.712;2023-05-07T00:18:02;0.75;0.75;0.00
71794;PMS7003;59641;45.188;5.712;2023-05-07T00:20:28;1.00;1.00;0.20
71794;PMS7003;59641;45.188;5.712;2023-05-07T00:22:54;0.00;0.00;0.00
71794;PMS7003;59641;45.188;5.712;2023-05-07T00:25:19;1.00;1.00;0.00
71794;PMS7003;59641;45.188;5.712;2023-05-07T00:27:45;1.00;1.00;0.00
71794;PMS7003;59641;45.188;5.712;2023-05-07T00:30:10;0.75;0.75;0.00
71794;PMS7003;59641;45.188;5.712;2023-05-07T00:32:37;0.40;0.40;0.00
71794;PMS7003;59641;45.188;5.712;2023-05-07T00:35:03;0.00;0.00;0.00
71794;PMS7003;59641;45.188;5.712;2023-05-07T00:37:29;0.00;0.00;0.00
71794;PMS7003;59641;45.188;5.712;2023-05-07T00:39:55;1.75;1.75;1.00
71794;PMS7003;59641;45.188;5.712;2023-05-07T00:42:20;0.25;0.25;0.25
71794;PMS7003;59641;45.188;5.712;2023-05-07T00:44:46;0.00;0.00;0.00
71794;PMS7003;59641;45.188;5.712;2023-05-07T00:47:11;0.25;0.25;0.00
71794;PMS7003;59641;45.188;5.712;2023-05-07T00:49:38;0.80;0.80;0.00
71794;PMS7003;59641;45.188;5.712;2023-05-07T00:52:06;0.80;0.80;0.60
71794;PMS7003;59641;45.188;5.712;2023-05-07T00:54:33;1.00;1.00;0.00
71794;PMS7003;59641;45.188;5.712;2023-05-07T00:56:59;0.80;0.80;0.80
71794;PMS7003;59641;45.188;5.712;2023-05-07T00:59:25;0.60;0.00;0.00
71794;PMS7003;59641;45.188;5.712;2023-05-07T01:01:51;1.00;1.00;1.00
71794;PMS7003;59641;45.188;5.712;2023-05-07T01:04:17;2.00;0.00;0.00
71794;PMS7003;59641;45.188;5.712;2023-05-07T01:06:42;0.75;0.25;0.00
71794;PMS7003;59641;45.188;5.712;2023-05-07T01:09:10;0.00;0.00;0.00
71794;PMS7003;59641;45.188;5.712;2023-05-07T01:11:36;0.00;0.00;0.00
71794;PMS7003;59641;45.188;5.712;2023-05-07T01:14:03;0.00;0.00;0.00
71794;PMS7003;59641;45.188;5.712;2023-05-07T01:16:29;0.00;0.00;0.00
71794;PMS7003;59641;45.188;5.712;2023-05-07T01:18:54;1.00;1.00;0.00
71794;PMS7003;59641;45.188;5.712;2023-05-07T01:21:20;2.00;2.00;1.00
71794;PMS7003;59641;45.188;5.712;2023-05-07T01:23:51;0.60;0.00;0.00
71794;PMS7003;59641;45.188;5.712;2023-05-07T01:26:17;1.75;1.75;1.00
71794;PMS7003;59641;45.188;5.712;2023-05-07T01:28:44;1.40;1.40;1.00
71794;PMS7003;59641;45.188;5.712;2023-05-07T01:31:10;0.00;0.00;0.00
71794;PMS7003;59641;45.188;5.712;2023-05-07T01:33:38;2.20;2.20;1.00
71794;PMS7003;59641;45.188;5.712;2023-05-07T01:36:06;0.40;0.40;0.00
71794;PMS7003;59641;45.188;5.712;2023-05-07T01:38:33;1.40;1.00;0.80
71794;PMS7003;59641;45.188;5.712;2023-05-07T01:41:01;1.40;1.40;0.60
71794;PMS7003;59641;45.188;5.712;2023-05-07T01:43:28;2.00;2.00;1.00
71794;PMS7003;59641;45.188;5.712;2023-05-07T01:45:54;1.60;0.80;0.20
71794;PMS7003;59641;45.188;5.712;2023-05-07T01:48:20;1.00;1.00;1.00
71794;PMS7003;59641;45.188;5.712;2023-05-07T01:50:46;1.00;1.00;1.00
71794;PMS7003;59641;45.188;5.712;2023-05-07T01:53:12;1.00;1.00;0.60
71794;PMS7003;59641;45.188;5.712;2023-05-07T01:55:38;0.00;0.00;0.00
71794;PMS7003;59641;45.188;5.712;2023-05-07T01:58:03;0.25;0.25;0.00
71794;PMS7003;59641;45.188;5.712;2023-05-07T02:00:29;2.00;2.00;0.00
71794;PMS7003;59641;45.188;5.712;2023-05-07T02:02:54;0.75;0.75;0.00
71794;PMS7003;59641;45.188;5.712;2023-05-07T02:05:20;0.50;0.00;0.00
71794;PMS7003;59641;45.188;5.712;2023-05-07T02:07:46;1.50;1.50;1.00
71794;PMS7003;59641;45.188;5.712;2023-05-07T02:10:11;1.25;0.75;0.75
71794;PMS7003;59641;45.188;5.712;2023-05-07T02:12:37;2.00;2.00;1.50
71794;PMS7003;59641;45.188;5.712;2023-05-07T02:15:02;2.00;2.00;1.00
71794;PMS7003;59641;45.188;5.712;2023-05-07T02:17:27;2.00;2.00;1.00
71794;PMS7003;59641;45.188;5.712;2023-05-07T02:19:56;3.00;3.00;2.40
71794;PMS7003;59641;45.188;5.712;2023-05-07T02:22:22;3.00;3.00;3.00
71794;PMS7003;59641;45.188;5.712;2023-05-07T02:24:47;4.25;4.00;2.50
71794;PMS7003;59641;45.188;5.712;2023-05-07T02:27:12;4.50;4.50;3.75
71794;PMS7003;59641;45.188;5.712;2023-05-07T02:29:38;5.25;4.00;2.50
71794;PMS7003;59641;45.188;5.712;2023-05-07T02:32:04;5.00;4.00;3.00
71794;PMS7003;59641;45.188;5.712;2023-05-07T02:34:29;5.00;5.00;3.25
71794;PMS7003;59641;45.188;5.712;2023-05-07T02:36:55;5.25;3.50;3.50
71794;PMS7003;59641;45.188;5.712;2023-05-07T02:39:20;3.75;3.75;3.25
71794;PMS7003;59641;45.188;5.712;2023-05-07T02:41:46;3.00;2.50;1.50
71794;PMS7003;59641;45.188;5.712;2023-05-07T02:44:11;2.00;2.00;1.25
71794;PMS7003;59641;45.188;5.712;2023-05-07T02:46:37;2.00;2.00;1.75
71794;PMS7003;59641;45.188;5.712;2023-05-07T02:49:02;2.00;2.00;2.00
71794;PMS7003;59641;45.188;5.712;2023-05-07T02:51:27;2.00;2.00;2.00
71794;PMS7003;59641;45.188;5.712;2023-05-07T02:53:53;4.00;4.00;2.75
71794;PMS7003;59641;45.188;5.712;2023-05-07T02:56:18;1.00;1.00;1.00
71794;PMS7003;59641;45.188;5.712;2023-05-07T02:58:43;3.50;2.00;2.00
71794;PMS7003;59641;45.188;5.712;2023-05-07T03:01:09;2.00;2.00;2.00
71794;PMS7003;59641;45.188;5.712;2023-05-07T03:03:34;2.00;2.00;1.00
71794;PMS7003;59641;45.188;5.712;2023-05-07T03:06:00;2.00;1.00;1.00
71794;PMS7003;59641;45.188;5.712;2023-05-07T03:08:26;2.00;2.00;1.50
71794;PMS7003;59641;45.188;5.712;2023-05-07T03:10:52;2.00;2.00;1.00
71794;PMS7003;59641;45.188;5.712;2023-05-07T03:13:17;2.75;2.75;1.75
71794;PMS7003;59641;45.188;5.712;2023-05-07T03:15:42;3.00;3.00;2.00
71794;PMS7003;59641;45.188;5.712;2023-05-07T03:18:08;4.00;2.25;2.00
71794;PMS7003;59641;45.188;5.712;2023-05-07T03:20:33;1.75;1.75;1.25
71794;PMS7003;59641;45.188;5.712;2023-05-07T03:22:59;5.00;3.00;2.00
71794;PMS7003;59641;45.188;5.712;2023-05-07T03:25:24;2.00;2.00;2.00
71794;PMS7003;59641;45.188;5.712;2023-05-07T03:27:50;0.50;0.00;0.00
71794;PMS7003;59641;45.188;5.712;2023-05-07T03:30:16;2.25;2.00;1.00
71794;PMS7003;59641;45.188;5.712;2023-05-07T03:32:41;2.00;2.00;1.00
71794;PMS7003;59641;45.188;5.712;2023-05-07T03:35:06;3.75;3.75;3.00
71794;PMS7003;59641;45.188;5.712;2023-05-07T03:37:32;4.00;4.00;3.00
71794;PMS7003;59641;45.188;5.712;2023-05-07T03:39:58;2.25;2.25;2.00
71794;PMS7003;59641;45.188;5.712;2023-05-07T03:42:23;3.00;3.00;2.00
71794;PMS7003;59641;45.188;5.712;2023-05-07T03:44:49;3.50;3.50;3.00
71794;PMS7003;59641;45.188;5.712;2023-05-07T03:47:14;2.25;1.75;0.75
71794;PMS7003;59641;45.188;5.712;2023-05-07T03:49:40;3.75;3.75;3.00
71794;PMS7003;59641;45.188;5.712;2023-05-07T03:52:05;3.50;3.50;3.00
71794;PMS7003;59641;45.188;5.712;2023-05-07T03:54:31;5.50;4.00;3.00
71794;PMS7003;59641;45.188;5.712;2023-05-07T03:56:56;4.25;4.25;3.75
71794;PMS7003;59641;45.188;5.712;2023-05-07T03:59:22;5.00;4.00;3.00
71794;PMS7003;59641;45.188;5.712;2023-05-07T04:01:47;2.00;2.00;1.75
71794;PMS7003;59641;45.188;5.712;2023-05-07T04:04:13;3.00;3.00;2.20
71794;PMS7003;59641;45.188;5.712;2023-05-07T04:06:39;3.00;3.00;2.00
71794;PMS7003;59641;45.188;5.712;2023-05-07T04:09:05;3.50;3.00;3.00
71794;PMS7003;59641;45.188;5.712;2023-05-07T04:11:31;5.00;3.80;3.00
71794;PMS7003;59641;45.188;5.712;2023-05-07T04:13:57;4.00;4.00;3.00
71794;PMS7003;59641;45.188;5.712;2023-05-07T04:16:22;3.00;3.00;2.50
71794;PMS7003;59641;45.188;5.712;2023-05-07T04:18:47;4.00;3.50;3.00
71794;PMS7003;59641;45.188;5.712;2023-05-07T04:21:16;4.00;4.00;3.25
71794;PMS7003;59641;45.188;5.712;2023-05-07T04:23:42;4.60;4.00;3.00
71794;PMS7003;59641;45.188;5.712;2023-05-07T04:26:08;2.00;2.00;1.00
71794;PMS7003;59641;45.188;5.712;2023-05-07T04:28:34;3.50;3.00;2.00
71794;PMS7003;59641;45.188;5.712;2023-05-07T04:31:00;4.75;4.25;2.25
71794;PMS7003;59641;45.188;5.712;2023-05-07T04:33:25;4.75;4.75;3.25
71794;PMS7003;59641;45.188;5.712;2023-05-07T04:35:50;5.00;4.25;3.00
71794;PMS7003;59641;45.188;5.712;2023-05-07T04:38:16;3.25;2.75;2.00
71794;PMS7003;59641;45.188;5.712;2023-05-07T04:40:43;3.60;3.60;2.00
71794;PMS7003;59641;45.188;5.712;2023-05-07T04:43:09;3.00;2.75;2.00
71794;PMS7003;59641;45.188;5.712;2023-05-07T04:45:35;3.75;3.75;2.25
71794;PMS7003;59641;45.188;5.712;2023-05-07T04:48:01;4.60;4.60;3.60
71794;PMS7003;59641;45.188;5.712;2023-05-07T04:50:26;3.50;3.50;3.00
71794;PMS7003;59641;45.188;5.712;2023-05-07T04:52:51;5.25;4.00;3.00
71794;PMS7003;59641;45.188;5.712;2023-05-07T04:55:17;5.00;5.00;4.00
71794;PMS7003;59641;45.188;5.712;2023-05-07T04:57:42;3.25;3.25;3.00
71794;PMS7003;59641;45.188;5.712;2023-05-07T05:00:08;4.00;4.00;3.50
71794;PMS7003;59641;45.188;5.712;2023-05-07T05:02:34;6.00;4.75;4.25
71794;PMS7003;59641;45.188;5.712;2023-05-07T05:05:00;4.00;4.00;3.00
71794;PMS7003;59641;45.188;5.712;2023-05-07T05:07:27;3.00;3.00;2.60
71794;PMS7003;59641;45.188;5.712;2023-05-07T05:09:53;3.60;3.60;2.80
71794;PMS7003;59641;45.188;5.712;2023-05-07T05:12:18;4.00;4.00;4.00
71794;PMS7003;59641;45.188;5.712;2023-05-07T05:14:44;3.50;3.50;3.00
71794;PMS7003;59641;45.188;5.712;2023-05-07T05:17:09;3.25;3.25;2.75
71794;PMS7003;59641;45.188;5.712;2023-05-07T05:19:35;3.50;3.50;3.00
71794;PMS7003;59641;45.188;5.712;2023-05-07T05:22:00;4.00;4.00;3.00
71794;PMS7003;59641;45.188;5.712;2023-05-07T05:24:26;3.25;3.25;3.00
71794;PMS7003;59641;45.188;5.712;2023-05-07T05:26:52;5.00;5.00;3.50
71794;PMS7003;59641;45.188;5.712;2023-05-07T05:29:18;2.80;2.80;2.00
71794;PMS7003;59641;45.188;5.712;2023-05-07T05:31:43;2.25;2.25;2.00
71794;PMS7003;59641;45.188;5.712;2023-05-07T05:34:09;4.25;4.25;4.00
71794;PMS7003;59641;45.188;5.712;2023-05-07T05:36:34;3.00;3.00;2.00
71794;PMS7003;59641;45.188;5.712;2023-05-07T05:39:00;3.00;3.00;2.25
71794;PMS7003;59641;45.188;5.712;2023-05-07T05:41:25;3.00;3.00;3.00
71794;PMS7003;59641;45.188;5.712;2023-05-07T05:43:50;5.50;5.25;3.75
71794;PMS7003;59641;45.188;5.712;2023-05-07T05:46:16;5.00;5.00;4.00
71794;PMS7003;59641;45.188;5.712;2023-05-07T05:48:41;4.50;4.00;3.00
71794;PMS7003;59641;45.188;5.712;2023-05-07T05:51:07;3.25;3.25;2.75
71794;PMS7003;59641;45.188;5.712;2023-05-07T05:53:32;3.00;3.00;2.50
71794;PMS7003;59641;45.188;5.712;2023-05-07T05:55:57;3.00;3.00;2.25
71794;PMS7003;59641;45.188;5.712;2023-05-07T05:58:23;4.50;3.75;2.75
71794;PMS7003;59641;45.188;5.712;2023-05-07T06:00:48;3.00;3.00;2.75
71794;PMS7003;59641;45.188;5.712;2023-05-07T06:03:17;4.40;3.00;2.00
71794;PMS7003;59641;45.188;5.712;2023-05-07T06:05:42;3.75;3.50;2.50
71794;PMS7003;59641;45.188;5.712;2023-05-07T06:08:07;3.25;3.25;3.00
71794;PMS7003;59641;45.188;5.712;2023-05-07T06:10:33;3.00;3.00;3.00
71794;PMS7003;59641;45.188;5.712;2023-05-07T06:12:58;4.25;2.75;2.00
71794;PMS7003;59641;45.188;5.712;2023-05-07T06:15:23;3.25;3.25;3.00
71794;PMS7003;59641;45.188;5.712;2023-05-07T06:17:49;1.75;1.75;1.00
71794;PMS7003;59641;45.188;5.712;2023-05-07T06:20:14;3.00;3.00;2.00
71794;PMS7003;59641;45.188;5.712;2023-05-07T06:22:40;2.00;2.00;2.00
71794;PMS7003;59641;45.188;5.712;2023-05-07T06:25:05;1.75;1.75;1.00
71794;PMS7003;59641;45.188;5.712;2023-05-07T06:27:31;4.00;4.00;3.00
71794;PMS7003;59641;45.188;5.712;2023-05-07T06:29:57;3.50;3.50;2.00
71794;PMS7003;59641;45.188;5.712;2023-05-07T06:32:22;3.00;3.00;1.00
71794;PMS7003;59641;45.188;5.712;2023-05-07T06:34:47;2.00;2.00;1.25
71794;PMS7003;59641;45.188;5.712;2023-05-07T06:37:13;2.25;2.25;1.00
71794;PMS7003;59641;45.188;5.712;2023-05-07T06:39:38;1.50;1.50;1.00
71794;PMS7003;59641;45.188;5.712;2023-05-07T06:42:04;2.00;2.00;2.00
71794;PMS7003;59641;45.188;5.712;2023-05-07T06:44:29;2.75;2.75;1.25
71794;PMS7003;59641;45.188;5.712;2023-05-07T06:46:55;2.80;2.80;2.00
71794;PMS7003;59641;45.188;5.712;2023-05-07T06:49:21;2.25;2.25;2.25
71794;PMS7003;59641;45.188;5.712;2023-05-07T06:51:46;2.00;2.00;1.00
71794;PMS7003;59641;45.188;5.712;2023-05-07T06:54:12;4.25;4.25;2.75
71794;PMS7003;59641;45.188;5.712;2023-05-07T06:56:37;3.00;1.00;1.00
71794;PMS7003;59641;45.188;5.712;2023-05-07T06:59:02;1.00;1.00;1.00
71794;PMS7003;59641;45.188;5.712;2023-05-07T07:01:28;2.25;2.00;1.25
71794;PMS7003;59641;45.188;5.712;2023-05-07T07:03:54;3.00;3.00;2.00
71794;PMS7003;59641;45.188;5.712;2023-05-07T07:06:19;3.50;3.50;3.25
71794;PMS7003;59641;45.188;5.712;2023-05-07T07:08:45;2.00;2.00;1.00
71794;PMS7003;59641;45.188;5.712;2023-05-07T07:11:10;2.00;1.00;1.00
71794;PMS7003;59641;45.188;5.712;2023-05-07T07:13:36;1.00;1.00;1.00
71794;PMS7003;59641;45.188;5.712;2023-05-07T07:16:01;3.00;2.25;1.50
71794;PMS7003;59641;45.188;5.712;2023-05-07T07:18:27;2.00;2.00;1.50
71794;PMS7003;59641;45.188;5.712;2023-05-07T07:20:52;3.25;3.25;2.00
71794;PMS7003;59641;45.188;5.712;2023-05-07T07:23:18;3.50;3.50;2.75
71794;PMS7003;59641;45.188;5.712;2023-05-07T07:25:43;2.50;1.00;0.75
71794;PMS7003;59641;45.188;5.712;2023-05-07T07:28:09;3.50;3.00;2.00
71794;PMS7003;59641;45.188;5.712;2023-05-07T07:30:35;2.00;2.00;1.40
71794;PMS7003;59641;45.188;5.712;2023-05-07T07:33:01;3.00;3.00;3.00
71794;PMS7003;59641;45.188;5.712;2023-05-07T07:35:28;4.40;4.40;3.00
71794;PMS7003;59641;45.188;5.712;2023-05-07T07:37:54;3.00;3.00;2.50
71794;PMS7003;59641;45.188;5.712;2023-05-07T07:40:20;3.25;3.00;3.00
71794;PMS7003;59641;45.188;5.712;2023-05-07T07:42:46;2.00;2.00;1.75
71794;PMS7003;59641;45.188;5.712;2023-05-07T07:45:11;4.50;4.00;3.00
71794;PMS7003;59641;45.188;5.712;2023-05-07T07:47:37;4.75;3.25;3.00
71794;PMS7003;59641;45.188;5.712;2023-05-07T07:50:03;7.00;7.00;5.00
71794;PMS7003;59641;45.188;5.712;2023-05-07T07:52:28;4.50;4.50;4.00
71794;PMS7003;59641;45.188;5.712;2023-05-07T07:54:54;4.50;4.50;4.00
71794;PMS7003;59641;45.188;5.712;2023-05-07T07:57:20;4.00;4.00;3.00
71794;PMS7003;59641;45.188;5.712;2023-05-07T07:59:45;5.00;5.00;4.00
71794;PMS7003;59641;45.188;5.712;2023-05-07T08:02:10;4.50;4.00;3.25
71794;PMS7003;59641;45.188;5.712;2023-05-07T08:04:36;4.75;4.75;4.00
71794;PMS7003;59641;45.188;5.712;2023-05-07T08:07:02;4.00;4.00;3.25
71794;PMS7003;59641;45.188;5.712;2023-05-07T08:09:27;4.75;3.75;3.00
71794;PMS7003;59641;45.188;5.712;2023-05-07T08:11:53;3.00;3.00;2.75
71794;PMS7003;59641;45.188;5.712;2023-05-07T08:14:18;3.00;3.00;2.50
71794;PMS7003;59641;45.188;5.712;2023-05-07T08:16:44;3.00;3.00;2.50
71794;PMS7003;59641;45.188;5.712;2023-05-07T08:19:09;4.00;4.00;3.00
71794;PMS7003;59641;45.188;5.712;2023-05-07T08:21:38;3.75;3.75;3.00
71794;PMS7003;59641;45.188;5.712;2023-05-07T08:24:04;3.80;3.80;2.60
71794;PMS7003;59641;45.188;5.712;2023-05-07T08:26:30;4.00;4.00;3.25
71794;PMS7003;59641;45.188;5.712;2023-05-07T08:28:55;6.50;6.00;4.00
71794;PMS7003;59641;45.188;5.712;2023-05-07T08:31:21;3.00;3.00;2.00
71794;PMS7003;59641;45.188;5.712;2023-05-07T08:33:46;3.25;3.25;3.00
71794;PMS7003;59641;45.188;5.712;2023-05-07T08:36:12;3.50;3.50;3.50
71794;PMS7003;59641;45.188;5.712;2023-05-07T08:38:37;4.00;4.00;3.00
71794;PMS7003;59641;45.188;5.712;2023-05-07T08:41:05;3.60;3.60;2.40
71794;PMS7003;59641;45.188;5.712;2023-05-07T08:43:32;4.00;3.00;2.80
71794;PMS7003;59641;45.188;5.712;2023-05-07T08:46:00;2.00;2.00;1.20
71794;PMS7003;59641;45.188;5.712;2023-05-07T08:48:27;4.00;4.00;3.40
71794;PMS7003;59641;45.188;5.712;2023-05-07T08:50:55;4.40;3.60;2.60
71794;PMS7003;59641;45.188;5.712;2023-05-07T08:53:20;5.00;5.00;4.00
71794;PMS7003;59641;45.188;5.712;2023-05-07T08:55:46;5.50;4.50;3.75
71794;PMS7003;59641;45.188;5.712;2023-05-07T08:58:12;6.00;5.00;4.00
71794;PMS7003;59641;45.188;5.712;2023-05-07T09:00:38;4.00;4.00;3.00
71794;PMS7003;59641;45.188;5.712;2023-05-07T09:03:05;3.20;3.20;3.00
71794;PMS7003;59641;45.188;5.712;2023-05-07T09:05:30;3.50;3.50;3.00
71794;PMS7003;59641;45.188;5.712;2023-05-07T09:07:58;3.50;3.50;3.25
71794;PMS7003;59641;45.188;5.712;2023-05-07T09:10:25;3.40;3.40;3.00
71794;PMS7003;59641;45.188;5.712;2023-05-07T09:12:51;3.80;3.80;3.20
71794;PMS7003;59641;45.188;5.712;2023-05-07T09:15:18;4.00;4.00;3.00
71794;PMS7003;59641;45.188;5.712;2023-05-07T09:17:43;3.00;3.00;2.40
71794;PMS7003;59641;45.188;5.712;2023-05-07T09:20:09;2.25;2.25;2.00
71794;PMS7003;59641;45.188;5.712;2023-05-07T09:22:38;3.00;3.00;2.50
71794;PMS7003;59641;45.188;5.712;2023-05-07T09:25:04;4.00;4.00;3.00
71794;PMS7003;59641;45.188;5.712;2023-05-07T09:27:31;3.80;3.80;3.20
71794;PMS7003;59641;45.188;5.712;2023-05-07T09:29:56;5.00;5.00;4.00
71794;PMS7003;59641;45.188;5.712;2023-05-07T09:32:21;6.00;4.75;4.00
71794;PMS7003;59641;45.188;5.712;2023-05-07T09:34:47;8.00;6.00;4.75
71794;PMS7003;59641;45.188;5.712;2023-05-07T09:37:13;6.00;5.75;5.00
71794;PMS7003;59641;45.188;5.712;2023-05-07T09:39:40;4.00;4.00;4.00
71794;PMS7003;59641;45.188;5.712;2023-05-07T09:42:12;4.40;4.40;3.80
71794;PMS7003;59641;45.188;5.712;2023-05-07T09:44:40;3.25;3.25;3.00
71794;PMS7003;59641;45.188;5.712;2023-05-07T09:47:06;5.25;4.00;3.75
71794;PMS7003;59641;45.188;5.712;2023-05-07T09:49:34;7.50;5.25;3.25
71794;PMS7003;59641;45.188;5.712;2023-05-07T09:52:02;3.25;3.25;3.00
71794;PMS7003;59641;45.188;5.712;2023-05-07T09:54:30;3.00;3.00;2.25
71794;PMS7003;59641;45.188;5.712;2023-05-07T09:56:57;2.00;2.00;2.00
71794;PMS7003;59641;45.188;5.712;2023-05-07T09:59:24;4.00;4.00;2.20
71794;PMS7003;59641;45.188;5.712;2023-05-07T10:01:50;1.80;1.80;1.60
71794;PMS7003;59641;45.188;5.712;2023-05-07T10:04:18;4.60;3.00;1.20
71794;PMS7003;59641;45.188;5.712;2023-05-07T10:06:45;1.00;1.00;1.00
71794;PMS7003;59641;45.188;5.712;2023-05-07T10:09:12;3.00;3.00;1.60
71794;PMS7003;59641;45.188;5.712;2023-05-07T10:11:38;1.60;1.60;1.00
71794;PMS7003;59641;45.188;5.712;2023-05-07T10:14:05;1.80;1.80;1.00
71794;PMS7003;59641;45.188;5.712;2023-05-07T10:16:31;4.00;4.00;2.00
71794;PMS7003;59641;45.188;5.712;2023-05-07T10:19:02;4.60;3.60;2.60
71794;PMS7003;59641;45.188;5.712;2023-05-07T10:21:30;2.80;2.80;2.20
71794;PMS7003;59641;45.188;5.712;2023-05-07T10:24:16;1.80;1.80;1.40
71794;PMS7003;59641;45.188;5.712;2023-05-07T10:26:47;2.60;2.40;2.20
71794;PMS7003;59641;45.188;5.712;2023-05-07T10:29:17;1.00;1.00;1.00
71794;PMS7003;59641;45.188;5.712;2023-05-07T10:32:00;2.00;2.00;1.60
71794;PMS7003;59641;45.188;5.712;2023-05-07T10:34:46;1.40;1.00;1.00
71794;PMS7003;59641;45.188;5.712;2023-05-07T10:37:13;1.50;1.50;1.00
71794;PMS7003;59641;45.188;5.712;2023-05-07T10:39:40;2.40;2.20;1.20
71794;PMS7003;59641;45.188;5.712;2023-05-07T10:42:09;1.20;1.20;0.80
71794;PMS7003;59641;45.188;5.712;2023-05-07T10:44:38;3.50;3.00;3.00
71794;PMS7003;59641;45.188;5.712;2023-05-07T10:47:11;2.00;2.00;2.00
71794;PMS7003;59641;45.188;5.712;2023-05-07T10:52:20;3.20;2.40;2.40
71794;PMS7003;59641;45.188;5.712;2023-05-07T10:55:18;2.00;2.00;2.00
71794;PMS7003;59641;45.188;5.712;2023-05-07T10:57:42;2.60;2.20;2.00
71794;PMS7003;59641;45.188;5.712;2023-05-07T11:05:29;1.00;1.00;1.00
71794;PMS7003;59641;45.188;5.712;2023-05-07T11:07:56;1.00;1.00;0.00
71794;PMS7003;59641;45.188;5.712;2023-05-07T11:10:23;1.60;1.60;1.20
71794;PMS7003;59641;45.188;5.712;2023-05-07T11:13:42;1.80;1.80;1.40
71794;PMS7003;59641;45.188;5.712;2023-05-07T11:16:19;1.40;1.40;1.00
71794;PMS7003;59641;45.188;5.712;2023-05-07T11:18:50;3.00;3.00;2.00
71794;PMS7003;59641;45.188;5.712;2023-05-07T11:21:32;2.80;2.00;2.00
71794;PMS7003;59641;45.188;5.712;2023-05-07T11:24:05;4.00;4.00;3.00
71794;PMS7003;59641;45.188;5.712;2023-05-07T11:26:45;1.60;1.40;1.00
71794;PMS7003;59641;45.188;5.712;2023-05-07T11:29:18;2.00;1.00;1.00
71794;PMS7003;59641;45.188;5.712;2023-05-07T11:31:51;0.60;0.60;0.60
71794;PMS7003;59641;45.188;5.712;2023-05-07T11:34:24;1.00;1.00;0.80
71794;PMS7003;59641;45.188;5.712;2023-05-07T11:36:51;2.40;2.00;1.00
71794;PMS7003;59641;45.188;5.712;2023-05-07T11:39:24;4.50;4.50;4.00
71794;PMS7003;59641;45.188;5.712;2023-05-07T11:41:57;4.80;4.80;4.40
71794;PMS7003;59641;45.188;5.712;2023-05-07T11:44:23;2.40;2.40;2.40
71794;PMS7003;59641;45.188;5.712;2023-05-07T11:46:49;3.75;2.50;2.00
71794;PMS7003;59641;45.188;5.712;2023-05-07T11:49:14;2.75;2.75;2.25
71794;PMS7003;59641;45.188;5.712;2023-05-07T11:51:40;1.00;1.00;0.00
71794;PMS7003;59641;45.188;5.712;2023-05-07T11:54:07;1.00;1.00;1.00
71794;PMS7003;59641;45.188;5.712;2023-05-07T11:56:36;2.40;2.20;1.00
71794;PMS7003;59641;45.188;5.712;2023-05-07T11:59:02;2.40;1.60;1.20
71794;PMS7003;59641;45.188;5.712;2023-05-07T12:01:27;2.00;2.00;2.00
71794;PMS7003;59641;45.188;5.712;2023-05-07T12:03:52;1.00;1.00;1.00
71794;PMS7003;59641;45.188;5.712;2023-05-07T12:06:18;0.25;0.25;0.00
71794;PMS7003;59641;45.188;5.712;2023-05-07T12:08:44;1.00;1.00;0.50
71794;PMS7003;59641;45.188;5.712;2023-05-07T12:11:14;2.00;2.00;1.20
71794;PMS7003;59641;45.188;5.712;2023-05-07T12:13:42;2.60;1.60;1.00
71794;PMS7003;59641;45.188;5.712;2023-05-07T12:16:08;4.75;3.00;2.00
71794;PMS7003;59641;45.188;5.712;2023-05-07T12:18:34;3.00;3.00;2.00
71794;PMS7003;59641;45.188;5.712;2023-05-07T12:21:01;3.00;2.00;1.40
71794;PMS7003;59641;45.188;5.712;2023-05-07T12:23:28;2.40;2.40;2.00
71794;PMS7003;59641;45.188;5.712;2023-05-07T12:25:54;2.40;2.40;1.60
71794;PMS7003;59641;45.188;5.712;2023-05-07T12:28:19;2.00;2.00;1.75
71794;PMS7003;59641;45.188;5.712;2023-05-07T12:30:46;2.00;2.00;1.00
71794;PMS7003;59641;45.188;5.712;2023-05-07T12:33:34;2.40;2.40;2.20
71794;PMS7003;59641;45.188;5.712;2023-05-07T12:36:02;3.00;3.00;1.80
71794;PMS7003;59641;45.188;5.712;2023-05-07T12:38:32;1.00;0.80;0.80
71794;PMS7003;59641;45.188;5.712;2023-05-07T12:41:02;1.00;1.00;1.00
71794;PMS7003;59641;45.188;5.712;2023-05-07T12:43:28;2.25;1.75;1.00
71794;PMS7003;59641;45.188;5.712;2023-05-07T12:45:54;3.60;3.60;1.40
71794;PMS7003;59641;45.188;5.712;2023-05-07T12:48:21;2.00;2.00;1.00
71794;PMS7003;59641;45.188;5.712;2023-05-07T12:50:51;1.60;1.60;1.20
71794;PMS7003;59641;45.188;5.712;2023-05-07T12:53:21;3.00;3.00;2.60
71794;PMS7003;59641;45.188;5.712;2023-05-07T12:55:48;2.40;2.40;2.00
71794;PMS7003;59641;45.188;5.712;2023-05-07T12:58:15;2.60;2.40;2.00
71794;PMS7003;59641;45.188;5.712;2023-05-07T13:00:42;2.20;2.20;1.40
71794;PMS7003;59641;45.188;5.712;2023-05-07T13:03:08;3.00;2.60;2.00
71794;PMS7003;59641;45.188;5.712;2023-05-07T13:05:34;2.00;2.00;2.00
71794;PMS7003;59641;45.188;5.712;2023-05-07T13:08:00;1.00;1.00;1.00
71794;PMS7003;59641;45.188;5.712;2023-05-07T13:10:26;1.20;1.20;0.80
71794;PMS7003;59641;45.188;5.712;2023-05-07T13:12:52;3.75;1.25;1.00
71794;PMS7003;59641;45.188;5.712;2023-05-07T13:15:18;3.25;3.00;2.00
71794;PMS7003;59641;45.188;5.712;2023-05-07T13:17:43;0.00;0.00;0.00
71794;PMS7003;59641;45.188;5.712;2023-05-07T13:20:09;2.25;2.25;2.00
71794;PMS7003;59641;45.188;5.712;2023-05-07T13:22:36;1.60;1.60;1.00
71794;PMS7003;59641;45.188;5.712;2023-05-07T13:25:02;1.75;1.75;1.50
71794;PMS7003;59641;45.188;5.712;2023-05-07T13:27:27;1.50;1.25;1.25
71794;PMS7003;59641;45.188;5.712;2023-05-07T13:29:55;1.00;1.00;0.60
71794;PMS7003;59641;45.188;5.712;2023-05-07T13:32:21;3.00;2.00;1.00
71794;PMS7003;59641;45.188;5.712;2023-05-07T13:34:46;1.00;1.00;1.00
71794;PMS7003;59641;45.188;5.712;2023-05-07T13:37:11;2.50;2.50;1.75
71794;PMS7003;59641;45.188;5.712;2023-05-07T13:39:37;0.25;0.25;0.00
71794;PMS7003;59641;45.188;5.712;2023-05-07T13:42:02;3.00;3.00;1.00
71794;PMS7003;59641;45.188;5.712;2023-05-07T13:44:27;1.50;1.50;1.00
71794;PMS7003;59641;45.188;5.712;2023-05-07T13:46:53;1.00;1.00;1.00
71794;PMS7003;59641;45.188;5.712;2023-05-07T13:49:18;1.25;1.25;1.00
71794;PMS7003;59641;45.188;5.712;2023-05-07T13:51:44;1.00;1.00;1.00
71794;PMS7003;59641;45.188;5.712;2023-05-07T13:54:09;2.00;2.00;2.00
71794;PMS7003;59641;45.188;5.712;2023-05-07T13:56:34;1.75;1.75;1.00
71794;PMS7003;59641;45.188;5.712;2023-05-07T13:59:00;1.50;1.50;1.00
71794;PMS7003;59641;45.188;5.712;2023-05-07T14:01:26;2.00;2.00;2.00
71794;PMS7003;59641;45.188;5.712;2023-05-07T14:03:52;2.00;2.00;1.25
71794;PMS7003;59641;45.188;5.712;2023-05-07T14:06:17;2.00;2.00;1.75
71794;PMS7003;59641;45.188;5.712;2023-05-07T14:08:42;1.50;1.50;1.25
71794;PMS7003;59641;45.188;5.712;2023-05-07T14:11:08;2.00;1.00;1.00
71794;PMS7003;59641;45.188;5.712;2023-05-07T14:13:33;1.00;1.00;0.00
71794;PMS7003;59641;45.188;5.712;2023-05-07T14:15:59;1.50;1.50;1.00
71794;PMS7003;59641;45.188;5.712;2023-05-07T14:18:25;3.00;3.00;2.20
71794;PMS7003;59641;45.188;5.712;2023-05-07T14:20:51;2.25;2.00;1.00
71794;PMS7003;59641;45.188;5.712;2023-05-07T14:23:16;1.00;1.00;1.00
71794;PMS7003;59641;45.188;5.712;2023-05-07T14:25:44;2.00;2.00;1.80
71794;PMS7003;59641;45.188;5.712;2023-05-07T14:28:11;1.60;1.60;1.00